createdAt,value
2018-11-07T00:01:55.286Z,10.85
2018-11-07T00:04:23.861Z,10.87
2018-11-07T00:06:52.342Z,10.87
2018-11-07T00:09:21.071Z,10.87
2018-11-07T00:11:49.606Z,10.86
2018-11-07T00:14:18.179Z,10.87
2018-11-07T00:16:46.859Z,10.88
2018-11-07T00:19:15.344Z,10.86
2018-11-07T00:21:44.222Z,10.09
2018-11-07T00:24:12.723Z,10.87
2018-11-07T00:26:41.371Z,10.87
2018-11-07T00:29:10.128Z,10.84
2018-11-07T00:31:38.675Z,10.79
2018-11-07T00:34:07.247Z,10.82
2018-11-07T00:36:35.723Z,10.82
2018-11-07T00:39:06.097Z,10.81
2018-11-07T00:41:34.577Z,10.82
2018-11-07T00:44:03.571Z,10.80
2018-11-07T00:46:32.206Z,10.82
2018-11-07T00:49:01.455Z,10.83
2018-11-07T00:51:30.144Z,10.83
2018-11-07T00:53:58.870Z,10.83
2018-11-07T00:56:27.334Z,10.85
2018-11-07T00:58:55.823Z,10.86
2018-11-07T01:01:24.623Z,10.87
2018-11-07T01:03:53.258Z,10.85
2018-11-07T01:06:22.079Z,10.84
2018-11-07T01:08:51.038Z,10.80
2018-11-07T01:11:19.629Z,10.80
2018-11-07T01:13:48.206Z,10.80
2018-11-07T01:16:16.815Z,10.78
2018-11-07T01:18:45.274Z,10.79
2018-11-07T01:21:13.755Z,10.76
2018-11-07T01:23:42.636Z,10.76
2018-11-07T01:26:11.220Z,10.73
2018-11-07T01:28:39.845Z,10.70
2018-11-07T01:31:08.371Z,10.66
2018-11-07T01:33:36.891Z,10.61
2018-11-07T01:36:05.655Z,10.62
2018-11-07T01:38:34.341Z,10.60
2018-11-07T01:41:02.998Z,10.60
2018-11-07T01:43:31.498Z,10.60
2018-11-07T01:46:00.298Z,10.58
2018-11-07T01:48:28.796Z,10.56
2018-11-07T01:50:57.420Z,10.53
2018-11-07T01:53:25.966Z,10.54
2018-11-07T01:55:54.475Z,10.51
2018-11-07T01:58:23.357Z,9.67
2018-11-07T02:00:51.894Z,10.45
2018-11-07T02:03:20.673Z,10.42
2018-11-07T02:05:49.200Z,10.40
2018-11-07T02:08:17.813Z,10.39
2018-11-07T02:10:46.302Z,10.37
2018-11-07T02:13:14.848Z,10.37
2018-11-07T02:15:43.627Z,10.39
2018-11-07T02:18:12.177Z,10.40
2018-11-07T02:20:40.987Z,10.37
2018-11-07T02:23:09.477Z,10.32
2018-11-07T02:25:38.043Z,10.24
2018-11-07T02:28:06.664Z,10.20
2018-11-07T02:30:35.183Z,10.20
2018-11-07T02:33:04.141Z,10.19
2018-11-07T02:35:32.614Z,10.19
2018-11-07T02:38:01.756Z,10.18
2018-11-07T02:40:30.344Z,10.17
2018-11-07T02:42:59.318Z,10.12
2018-11-07T02:45:27.843Z,10.09
2018-11-07T02:47:56.432Z,10.07
2018-11-07T02:50:24.934Z,10.03
2018-11-07T02:52:53.483Z,9.98
2018-11-07T02:55:22.299Z,9.66
2018-11-07T02:57:50.834Z,10.00
2018-11-07T03:00:19.775Z,9.96
2018-11-07T03:02:48.307Z,10.01
2018-11-07T03:05:16.957Z,10.03
2018-11-07T03:07:45.454Z,10.03
2018-11-07T03:10:14.225Z,10.01
2018-11-07T03:12:43.001Z,10.00
2018-11-07T03:15:11.562Z,9.97
2018-11-07T03:17:40.530Z,9.97
2018-11-07T03:20:10.759Z,9.92
2018-11-07T03:22:39.550Z,9.90
2018-11-07T03:25:08.023Z,9.87
2018-11-07T03:27:36.561Z,9.85
2018-11-07T03:30:06.302Z,9.79
2018-11-07T03:32:34.923Z,9.74
2018-11-07T03:35:03.571Z,9.71
2018-11-07T03:37:32.142Z,9.69
2018-11-07T03:40:00.935Z,9.66
2018-11-07T03:42:29.406Z,9.67
2018-11-07T03:44:58.312Z,9.65
2018-11-07T03:47:26.875Z,9.63
2018-11-07T03:49:55.492Z,9.64
2018-11-07T03:52:24.006Z,9.60
2018-11-07T03:54:52.494Z,9.59
2018-11-07T03:57:21.226Z,9.51
2018-11-07T03:59:49.809Z,9.59
2018-11-07T04:02:18.411Z,9.54
2018-11-07T04:04:46.879Z,9.54
2018-11-07T04:07:15.607Z,9.52
2018-11-07T04:09:44.105Z,9.47
2018-11-07T04:12:12.583Z,9.46
2018-11-07T04:14:41.308Z,9.32
2018-11-07T04:17:09.847Z,9.40
2018-11-07T04:19:38.883Z,9.37
2018-11-07T04:22:07.361Z,9.34
2018-11-07T04:24:36.148Z,9.29
2018-11-07T04:27:04.635Z,9.32
2018-11-07T04:29:33.294Z,9.32
2018-11-07T04:32:01.892Z,9.31
2018-11-07T04:34:30.377Z,9.29
2018-11-07T04:36:59.370Z,9.32
2018-11-07T04:39:27.853Z,9.27
2018-11-07T04:41:56.728Z,9.32
2018-11-07T04:44:25.278Z,9.26
2018-11-07T04:46:53.791Z,9.21
2018-11-07T04:49:22.387Z,9.21
2018-11-07T04:51:50.964Z,9.23
2018-11-07T04:54:19.731Z,9.22
2018-11-07T04:56:48.295Z,9.21
2018-11-07T04:59:17.102Z,8.86
2018-11-07T05:01:45.570Z,9.17
2018-11-07T05:04:14.119Z,9.19
2018-11-07T05:06:42.586Z,9.19
2018-11-07T05:09:11.066Z,9.17
2018-11-07T05:11:39.941Z,9.16
2018-11-07T05:14:08.512Z,9.18
2018-11-07T05:16:37.650Z,9.18
2018-11-07T05:19:06.251Z,9.19
2018-11-07T05:21:35.098Z,9.19
2018-11-07T05:24:03.686Z,9.19
2018-11-07T05:26:32.338Z,9.19
2018-11-07T05:29:00.855Z,9.17
2018-11-07T05:31:29.427Z,9.15
2018-11-07T05:33:58.462Z,9.14
2018-11-07T05:36:27.313Z,9.09
2018-11-07T05:38:56.139Z,9.12
2018-11-07T05:41:24.664Z,9.06
2018-11-07T05:43:53.558Z,8.53
2018-11-07T05:46:22.071Z,9.02
2018-11-07T05:48:50.621Z,9.01
2018-11-07T05:51:21.932Z,8.38
2018-11-07T05:53:50.487Z,9.03
2018-11-07T05:56:19.762Z,8.96
2018-11-07T05:58:48.403Z,8.95
2018-11-07T06:01:18.972Z,8.89
2018-11-07T06:03:47.470Z,8.88
2018-11-07T06:06:16.529Z,8.85
2018-11-07T06:08:45.027Z,8.85
2018-11-07T06:11:13.824Z,8.91
2018-11-07T06:13:42.399Z,8.85
2018-11-07T06:16:11.196Z,8.84
2018-11-07T06:18:39.776Z,8.85
2018-11-07T06:21:08.409Z,8.86
2018-11-07T06:23:36.951Z,8.85
2018-11-07T06:26:07.079Z,8.83
2018-11-07T06:28:35.719Z,8.81
2018-11-07T06:31:04.263Z,8.80
2018-11-07T06:33:33.037Z,8.23
2018-11-07T06:36:01.535Z,8.77
2018-11-07T06:38:30.468Z,8.79
2018-11-07T06:40:58.974Z,8.78
2018-11-07T06:43:27.505Z,8.70
2018-11-07T06:45:56.125Z,8.73
2018-11-07T06:48:24.648Z,8.71
2018-11-07T06:50:53.535Z,8.66
2018-11-07T06:53:22.139Z,8.70
2018-11-07T06:55:53.198Z,8.68
2018-11-07T06:58:25.371Z,8.63
2018-11-07T07:00:57.263Z,8.55
2018-11-07T07:03:29.267Z,8.67
2018-11-07T07:05:58.790Z,8.66
2018-11-07T07:08:30.831Z,8.67
2018-11-07T07:11:02.540Z,8.70
2018-11-07T07:13:55.098Z,8.67
2018-11-07T07:16:26.467Z,8.74
2018-11-07T07:19:01.889Z,8.76
2018-11-07T07:21:38.652Z,8.74
2018-11-07T07:24:08.000Z,8.81
2018-11-07T07:26:41.341Z,8.80
2018-11-07T07:29:13.831Z,8.80
2018-11-07T07:31:49.873Z,8.80
2018-11-07T07:34:22.231Z,8.79
2018-11-07T07:36:50.931Z,8.83
2018-11-07T07:39:19.516Z,8.85
2018-11-07T07:41:48.317Z,8.85
2018-11-07T07:44:16.840Z,8.84
2018-11-07T07:46:45.551Z,8.80
2018-11-07T07:49:14.841Z,8.80
2018-11-07T07:51:43.514Z,8.81
2018-11-07T07:54:12.051Z,8.83
2018-11-07T07:56:40.531Z,8.88
2018-11-07T07:59:09.508Z,8.52
2018-11-07T08:01:38.034Z,8.91
2018-11-07T08:04:06.829Z,8.91
2018-11-07T08:06:37.068Z,8.93
2018-11-07T08:09:08.715Z,8.95
2018-11-07T08:11:37.301Z,8.94
2018-11-07T08:14:06.262Z,8.96
2018-11-07T08:16:34.727Z,8.98
2018-11-07T08:19:03.608Z,9.04
2018-11-07T08:21:32.091Z,9.05
2018-11-07T08:24:00.711Z,9.03
2018-11-07T08:26:29.348Z,9.09
2018-11-07T08:28:57.981Z,9.12
2018-11-07T08:31:26.530Z,9.18
2018-11-07T08:33:55.040Z,9.16
2018-11-07T08:36:23.885Z,9.21
2018-11-07T08:38:52.478Z,9.27
2018-11-07T08:41:21.755Z,9.31
2018-11-07T08:43:50.375Z,9.34
2018-11-07T08:46:19.287Z,9.35
2018-11-07T08:48:47.827Z,9.40
2018-11-07T08:51:16.452Z,9.43
2018-11-07T08:53:45.138Z,9.43
2018-11-07T08:56:13.659Z,9.11
2018-11-07T08:58:42.721Z,9.53
2018-11-07T09:01:11.284Z,9.60
2018-11-07T09:03:39.798Z,9.60
2018-11-07T09:06:08.342Z,9.65
2018-11-07T09:08:36.857Z,9.70
2018-11-07T09:11:05.480Z,9.72
2018-11-07T09:13:34.062Z,9.77
2018-11-07T09:16:03.123Z,9.78
2018-11-07T09:18:31.634Z,9.83
2018-11-07T09:21:00.639Z,9.86
2018-11-07T09:23:29.142Z,9.88
2018-11-07T09:25:57.647Z,9.90
2018-11-07T09:28:26.180Z,9.96
2018-11-07T09:30:54.743Z,9.97
2018-11-07T09:33:23.649Z,10.01
2018-11-07T09:35:52.243Z,10.03
2018-11-07T09:38:21.235Z,10.07
2018-11-07T09:40:49.744Z,10.09
2018-11-07T09:43:18.471Z,10.09
2018-11-07T09:45:47.022Z,10.06
2018-11-07T09:48:15.708Z,10.15
2018-11-07T09:50:44.367Z,10.18
2018-11-07T09:53:12.890Z,10.22
2018-11-07T09:55:41.847Z,10.23
2018-11-07T09:58:10.496Z,10.26
2018-11-07T10:00:39.647Z,10.29
2018-11-07T10:03:08.126Z,10.36
2018-11-07T10:05:36.712Z,10.40
2018-11-07T10:08:05.750Z,10.44
2018-11-07T10:10:34.274Z,10.45
2018-11-07T10:13:03.001Z,10.48
2018-11-07T10:15:31.601Z,10.50
2018-11-07T10:18:00.736Z,10.55
2018-11-07T10:20:29.285Z,10.58
2018-11-07T10:22:58.040Z,10.63
2018-11-07T10:25:26.672Z,10.63
2018-11-07T10:27:55.648Z,10.62
2018-11-07T10:30:23.902Z,10.66
2018-11-07T10:32:52.603Z,10.71
2018-11-07T10:35:21.595Z,10.77
2018-11-07T10:37:50.284Z,10.82
2018-11-07T10:40:20.200Z,10.84
2018-11-07T10:42:48.862Z,10.85
2018-11-07T10:45:17.830Z,10.83
2018-11-07T10:47:47.144Z,10.82
2018-11-07T10:50:16.979Z,10.83
2018-11-07T10:52:46.063Z,10.89
2018-11-07T10:55:15.690Z,10.92
2018-11-07T10:57:44.359Z,10.96
2018-11-07T11:00:20.128Z,10.96
2018-11-07T11:02:53.827Z,10.98
2018-11-07T11:05:22.506Z,10.99
2018-11-07T11:07:51.305Z,10.99
2018-11-07T11:10:20.007Z,11.00
2018-11-07T11:12:48.753Z,10.66
2018-11-07T11:15:17.279Z,11.05
2018-11-07T11:17:45.963Z,11.09
2018-11-07T11:20:15.255Z,11.11
2018-11-07T11:22:43.779Z,11.13
2018-11-07T11:25:12.763Z,11.17
2018-11-07T11:27:41.344Z,11.18
2018-11-07T11:30:10.619Z,11.19
2018-11-07T11:32:39.687Z,11.22
2018-11-07T11:35:09.518Z,11.28
2018-11-07T11:37:38.035Z,11.29
2018-11-07T11:40:08.694Z,11.31
2018-11-07T11:42:37.223Z,11.35
2018-11-07T11:45:07.516Z,11.04
2018-11-07T11:47:36.099Z,11.42
2018-11-07T11:50:06.823Z,11.41
2018-11-07T11:52:35.340Z,11.41
2018-11-07T11:55:04.305Z,10.69
2018-11-07T11:57:33.298Z,11.46
2018-11-07T12:00:02.465Z,11.15
2018-11-07T12:02:30.761Z,11.52
2018-11-07T12:04:59.423Z,11.55
2018-11-07T12:07:27.939Z,11.57
2018-11-07T12:09:56.469Z,11.59
2018-11-07T12:12:25.256Z,11.58
2018-11-07T12:14:53.852Z,11.64
2018-11-07T12:17:22.894Z,11.65
2018-11-07T12:19:51.466Z,11.66
2018-11-07T12:22:20.832Z,11.64
2018-11-07T12:24:49.343Z,11.65
2018-11-07T12:27:17.982Z,11.69
2018-11-07T12:29:46.615Z,11.68
2018-11-07T12:32:15.150Z,11.68
2018-11-07T12:34:43.912Z,11.66
2018-11-07T12:37:12.414Z,11.67
2018-11-07T12:39:41.256Z,11.68
2018-11-07T12:42:09.837Z,11.70
2018-11-07T12:44:38.463Z,11.73
2018-11-07T12:47:07.310Z,11.74
2018-11-07T12:49:35.867Z,11.71
2018-11-07T12:52:05.081Z,11.70
2018-11-07T12:54:33.673Z,11.69
2018-11-07T12:57:02.806Z,11.69
2018-11-07T12:59:31.519Z,11.67
2018-11-07T13:02:01.091Z,11.36
2018-11-07T13:04:29.680Z,11.55
2018-11-07T13:06:58.763Z,11.63
2018-11-07T13:09:27.322Z,11.63
2018-11-07T13:11:55.931Z,11.62
2018-11-07T13:14:24.435Z,11.59
2018-11-07T13:16:52.967Z,11.59
2018-11-07T13:19:21.598Z,11.63
2018-11-07T13:21:50.099Z,11.59
2018-11-07T13:24:19.109Z,11.57
2018-11-07T13:26:47.743Z,11.57
2018-11-07T13:29:16.521Z,11.54
2018-11-07T13:31:45.146Z,11.55
2018-11-07T13:34:14.015Z,11.56
2018-11-07T13:36:43.040Z,11.20
2018-11-07T13:39:13.389Z,11.50
2018-11-07T13:41:42.366Z,11.49
2018-11-07T13:44:10.911Z,11.45
2018-11-07T13:46:39.636Z,11.41
2018-11-07T13:49:08.144Z,11.36
2018-11-07T13:51:37.029Z,11.35
2018-11-07T13:54:05.704Z,11.32
2018-11-07T13:56:34.529Z,11.31
2018-11-07T13:59:03.092Z,11.30
2018-11-07T14:01:31.605Z,11.27
2018-11-07T14:04:00.143Z,10.91
2018-11-07T14:06:28.635Z,11.19
2018-11-07T14:08:57.465Z,11.16
2018-11-07T14:11:25.991Z,11.12
2018-11-07T14:13:54.649Z,11.09
2018-11-07T14:16:23.406Z,11.04
2018-11-07T14:18:52.016Z,10.59
2018-11-07T14:21:20.506Z,10.95
2018-11-07T14:23:49.040Z,10.92
2018-11-07T14:26:18.011Z,10.86
2018-11-07T14:28:46.534Z,10.82
2018-11-07T14:31:15.360Z,10.48
2018-11-07T14:33:44.539Z,10.78
2018-11-07T14:36:13.375Z,10.74
2018-11-07T14:38:42.020Z,10.71
2018-11-07T14:41:10.668Z,10.66
2018-11-07T14:43:39.250Z,10.64
2018-11-07T14:46:07.819Z,10.59
2018-11-07T14:48:36.633Z,10.57
2018-11-07T14:51:05.718Z,10.51
2018-11-07T14:53:34.872Z,10.48
2018-11-07T14:56:03.285Z,10.46
2018-11-07T14:58:31.968Z,10.42
2018-11-07T15:01:00.507Z,10.37
2018-11-07T15:03:29.091Z,10.37
2018-11-07T15:05:57.659Z,10.32
2018-11-07T15:08:26.282Z,10.30
2018-11-07T15:10:54.947Z,9.88
2018-11-07T15:13:23.450Z,10.23
2018-11-07T15:15:52.477Z,10.21
2018-11-07T15:18:20.950Z,10.18
2018-11-07T15:20:49.528Z,10.18
2018-11-07T15:23:18.151Z,10.17
2018-11-07T15:25:46.769Z,10.17
2018-11-07T15:28:15.875Z,10.18
2018-11-07T15:30:44.474Z,10.18
2018-11-07T15:33:13.347Z,10.17
2018-11-07T15:35:41.905Z,10.12
2018-11-07T15:38:10.595Z,10.10
2018-11-07T15:40:39.104Z,10.11
2018-11-07T15:43:07.622Z,10.10
2018-11-07T15:45:36.147Z,10.11
2018-11-07T15:48:04.714Z,10.10
2018-11-07T15:50:38.739Z,10.12
2018-11-07T15:53:07.493Z,10.11
2018-11-07T15:55:36.095Z,10.11
2018-11-07T15:58:04.639Z,10.12
2018-11-07T16:00:33.352Z,10.16
2018-11-07T16:03:01.850Z,10.16
2018-11-07T16:05:30.915Z,10.16
2018-11-07T16:07:59.431Z,10.18
2018-11-07T16:10:28.601Z,10.18
2018-11-07T16:12:57.311Z,10.15
2018-11-07T16:15:26.096Z,10.21
2018-11-07T16:17:54.570Z,10.20
2018-11-07T16:20:23.139Z,10.19
2018-11-07T16:22:52.133Z,10.19
2018-11-07T16:25:20.732Z,10.19
2018-11-07T16:27:49.834Z,10.19
2018-11-07T16:30:19.737Z,10.16
2018-11-07T16:32:48.731Z,10.13
2018-11-07T16:35:17.329Z,10.11
2018-11-07T16:37:46.335Z,10.09
2018-11-07T16:40:16.366Z,10.09
2018-11-07T16:42:45.640Z,10.08
2018-11-07T16:45:15.132Z,10.06
2018-11-07T16:47:44.059Z,10.04
2018-11-07T16:50:13.806Z,10.04
2018-11-07T16:52:42.532Z,10.03
2018-11-07T16:55:11.139Z,10.03
2018-11-07T16:57:40.011Z,10.00
2018-11-07T17:00:12.531Z,10.00
2018-11-07T17:02:41.715Z,9.96
2018-11-07T17:05:11.061Z,9.96
2018-11-07T17:07:40.269Z,9.95
2018-11-07T17:10:09.505Z,9.92
2018-11-07T17:12:38.110Z,9.92
2018-11-07T17:15:06.907Z,9.89
2018-11-07T17:17:35.471Z,9.91
2018-11-07T17:20:04.071Z,9.89
2018-11-07T17:22:32.619Z,9.91
2018-11-07T17:25:01.683Z,9.93
2018-11-07T17:27:30.178Z,9.91
2018-11-07T17:29:58.923Z,9.92
2018-11-07T17:32:27.432Z,9.91
2018-11-07T17:34:55.974Z,9.91
2018-11-07T17:37:24.481Z,9.89
2018-11-07T17:39:52.990Z,9.87
2018-11-07T17:42:21.952Z,9.16
2018-11-07T17:44:50.460Z,9.89
2018-11-07T17:47:19.424Z,9.88
2018-11-07T17:49:48.013Z,9.86
2018-11-07T17:52:16.653Z,9.82
2018-11-07T17:54:45.207Z,9.79
2018-11-07T17:57:14.135Z,9.79
2018-11-07T17:59:42.952Z,9.78
2018-11-07T18:02:11.507Z,9.74
2018-11-07T18:04:40.743Z,9.72
2018-11-07T18:07:09.231Z,9.70
2018-11-07T18:09:37.948Z,9.67
2018-11-07T18:12:06.705Z,9.64
2018-11-07T18:14:35.739Z,9.62
2018-11-07T18:17:04.315Z,9.59
2018-11-07T18:19:33.004Z,9.56
2018-11-07T18:22:01.900Z,9.54
2018-11-07T18:24:30.467Z,9.53
2018-11-07T18:27:04.287Z,9.51
2018-11-07T18:29:34.160Z,9.53
2018-11-07T18:32:03.637Z,9.49
2018-11-07T18:34:35.343Z,9.50
2018-11-07T18:37:04.727Z,9.47
2018-11-07T18:39:34.412Z,9.47
2018-11-07T18:42:03.898Z,9.45
2018-11-07T18:44:32.933Z,9.47
2018-11-07T18:47:01.328Z,9.46
2018-11-07T18:49:30.616Z,8.84
2018-11-07T18:51:59.164Z,9.43
2018-11-07T18:54:27.674Z,9.43
2018-11-07T18:56:56.211Z,9.27
2018-11-07T18:59:24.846Z,9.42
2018-11-07T19:01:54.748Z,9.42
2018-11-07T19:04:23.260Z,9.39
2018-11-07T19:06:52.022Z,9.39
2018-11-07T19:09:20.496Z,9.41
2018-11-07T19:11:49.416Z,9.43
2018-11-07T19:14:17.955Z,9.42
2018-11-07T19:16:46.624Z,9.43
2018-11-07T19:19:15.252Z,9.46
2018-11-07T19:21:45.835Z,9.48
2018-11-07T19:24:14.359Z,9.48
2018-11-07T19:26:42.922Z,9.50
2018-11-07T19:29:11.495Z,9.52
2018-11-07T19:31:40.133Z,9.49
2018-11-07T19:34:09.029Z,9.57
2018-11-07T19:36:37.550Z,9.54
2018-11-07T19:39:08.355Z,9.57
2018-11-07T19:41:37.334Z,9.57
2018-11-07T19:44:06.404Z,9.13
2018-11-07T19:46:35.000Z,9.61
2018-11-07T19:49:03.565Z,9.63
2018-11-07T19:51:32.223Z,9.65
2018-11-07T19:54:00.983Z,9.63
2018-11-07T19:56:29.743Z,9.34
2018-11-07T19:58:58.368Z,9.65
2018-11-07T20:01:27.372Z,9.66
2018-11-07T20:03:55.854Z,9.66
2018-11-07T20:06:24.709Z,9.66
2018-11-07T20:08:53.229Z,9.66
2018-11-07T20:11:21.815Z,9.69
2018-11-07T20:13:50.317Z,9.71
2018-11-07T20:16:18.853Z,9.73
2018-11-07T20:18:47.652Z,9.71
2018-11-07T20:21:16.213Z,9.76
2018-11-07T20:23:45.319Z,9.40
2018-11-07T20:26:13.869Z,9.75
2018-11-07T20:28:42.796Z,9.76
2018-11-07T20:31:11.526Z,9.77
2018-11-07T20:33:42.951Z,9.78
2018-11-07T20:36:11.626Z,9.78
2018-11-07T20:38:40.566Z,9.78
2018-11-07T20:41:09.087Z,9.80
2018-11-07T20:43:37.596Z,9.80
2018-11-07T20:46:06.473Z,9.78
2018-11-07T20:48:34.979Z,9.79
2018-11-07T20:51:03.647Z,9.75
2018-11-07T20:53:32.173Z,9.78
2018-11-07T20:56:01.112Z,9.40
2018-11-07T20:58:29.620Z,9.80
2018-11-07T21:00:58.471Z,9.77
2018-11-07T21:03:27.162Z,9.82
2018-11-07T21:05:55.783Z,9.81
2018-11-07T21:08:24.479Z,9.83
2018-11-07T21:10:52.960Z,9.82
2018-11-07T21:13:21.870Z,9.81
2018-11-07T21:15:50.331Z,9.81
2018-11-07T21:18:19.166Z,9.78
2018-11-07T21:20:47.650Z,9.80
2018-11-07T21:23:16.286Z,9.81
2018-11-07T21:25:44.791Z,9.80
2018-11-07T21:28:13.386Z,9.81
2018-11-07T21:30:42.307Z,9.84
2018-11-07T21:33:10.879Z,9.83
2018-11-07T21:35:39.657Z,9.84
2018-11-07T21:38:08.172Z,9.83
2018-11-07T21:40:36.755Z,9.83
2018-11-07T21:43:05.446Z,9.84
2018-11-07T21:45:34.070Z,9.83
2018-11-07T21:48:03.128Z,9.84
2018-11-07T21:50:31.666Z,9.83
2018-11-07T21:53:00.478Z,9.84
2018-11-07T21:55:28.995Z,9.82
2018-11-07T21:57:57.570Z,9.83
2018-11-07T22:00:26.110Z,9.82
2018-11-07T22:02:54.681Z,9.77
2018-11-07T22:05:23.282Z,9.13
2018-11-07T22:07:51.858Z,9.81
2018-11-07T22:10:20.726Z,9.82
2018-11-07T22:12:49.315Z,9.82
2018-11-07T22:15:18.083Z,9.84
2018-11-07T22:17:46.560Z,9.85
2018-11-07T22:20:19.982Z,9.84
2018-11-07T22:22:48.578Z,9.83
2018-11-07T22:25:17.614Z,9.83
2018-11-07T22:27:46.175Z,9.84
2018-11-07T22:30:16.084Z,9.83
2018-11-07T22:32:44.667Z,9.84
2018-11-07T22:35:14.798Z,9.85
2018-11-07T22:37:43.915Z,9.84
2018-11-07T22:40:14.639Z,9.82
2018-11-07T22:42:43.450Z,9.84
2018-11-07T22:45:12.929Z,9.84
2018-11-07T22:47:41.417Z,9.84
2018-11-07T22:50:11.976Z,9.83
2018-11-07T22:52:41.198Z,9.81
2018-11-07T22:55:10.164Z,9.82
2018-11-07T22:57:39.159Z,9.84
2018-11-07T23:00:20.644Z,9.84
2018-11-07T23:02:50.684Z,9.86
2018-11-07T23:05:19.278Z,9.85
2018-11-07T23:07:48.212Z,9.84
2018-11-07T23:10:16.804Z,9.83
2018-11-07T23:12:45.733Z,9.82
2018-11-07T23:15:19.734Z,9.82
2018-11-07T23:17:48.244Z,9.85
2018-11-07T23:20:16.937Z,9.87
2018-11-07T23:22:45.584Z,9.87
2018-11-07T23:25:14.047Z,9.83
2018-11-07T23:27:42.703Z,9.87
2018-11-07T23:30:11.343Z,9.85
2018-11-07T23:32:40.139Z,9.84
2018-11-07T23:35:08.669Z,9.85
2018-11-07T23:37:37.503Z,9.86
2018-11-07T23:40:06.700Z,9.87
2018-11-07T23:42:35.295Z,9.87
2018-11-07T23:45:04.212Z,9.86
2018-11-07T23:47:32.789Z,9.86
2018-11-07T23:50:01.644Z,9.89
2018-11-07T23:52:35.697Z,9.89
2018-11-07T23:55:04.251Z,9.88
2018-11-07T23:57:32.792Z,9.86
